Terminal Aerodrome Forecast
Issued by NWS

Home | Current Version | Previous Version | Text Only | Print | Product List | Glossary On
Versions: 1 2 3 4 5 6 7 8 9 10 11 12
000
FTUS44 KOUN 111126
TAFHBR
TAF
KHBR 111126Z 1112/1212 21023G32KT P6SM OVC012
     FM111600 24014KT P6SM BKN025
     FM112000 34016G24KT P6SM BKN250
     FM120000 03010KT P6SM SCT250=

USA.gov is the U.S. government's official web portal to all federal, state and local government web resources and services.